createdAt,value
2018-12-18T00:02:00.501Z,102413.63
2018-12-18T00:04:29.221Z,102420.44
2018-12-18T00:06:58.275Z,102425.13
2018-12-18T00:09:27.049Z,102421.73
2018-12-18T00:11:59.256Z,102421.70
2018-12-18T00:14:26.597Z,102423.78
2018-12-18T00:16:55.419Z,102423.73
2018-12-18T00:19:24.241Z,102424.61
2018-12-18T00:21:52.994Z,102426.27
2018-12-18T00:24:22.019Z,102424.07
2018-12-18T00:26:50.883Z,102437.50
2018-12-18T00:29:20.044Z,102430.22
2018-12-18T00:31:48.859Z,102427.63
2018-12-18T00:34:18.024Z,102428.95
2018-12-18T00:36:46.669Z,102440.21
2018-12-18T00:39:15.935Z,102431.67
2018-12-18T00:41:44.912Z,102433.44
2018-12-18T00:44:13.762Z,102435.16
2018-12-18T00:46:42.685Z,102433.02
2018-12-18T00:49:11.704Z,102433.04
2018-12-18T00:51:40.452Z,102436.13
2018-12-18T00:54:09.345Z,102440.50
2018-12-18T00:56:38.448Z,102443.53
2018-12-18T00:59:07.335Z,102447.86
2018-12-18T01:01:36.105Z,102444.03
2018-12-18T01:04:05.034Z,102449.66
2018-12-18T01:06:34.361Z,102447.52
2018-12-18T01:09:09.301Z,102442.73
2018-12-18T01:11:38.012Z,102441.47
2018-12-18T01:14:06.973Z,102438.06
2018-12-18T01:16:35.767Z,102443.26
2018-12-18T01:19:04.660Z,102449.75
2018-12-18T01:21:33.555Z,102449.74
2018-12-18T01:24:02.343Z,102450.19
2018-12-18T01:26:31.263Z,102443.75
2018-12-18T01:29:00.834Z,102446.34
2018-12-18T01:31:29.618Z,102453.30
2018-12-18T01:33:59.425Z,102379.16
2018-12-18T01:36:28.326Z,102447.78
2018-12-18T01:38:57.180Z,102447.78
2018-12-18T01:41:25.904Z,102456.83
2018-12-18T01:43:54.680Z,102447.33
2018-12-18T01:46:23.613Z,102451.21
2018-12-18T01:48:52.786Z,102455.53
2018-12-18T01:51:22.056Z,102462.45
2018-12-18T01:53:51.058Z,102465.45
2018-12-18T01:56:20.097Z,102469.33
2018-12-18T01:58:49.693Z,102468.05
2018-12-18T02:01:18.383Z,102467.66
2018-12-18T02:03:47.137Z,102465.95
2018-12-18T02:06:15.858Z,102473.23
2018-12-18T02:08:45.032Z,102477.11
2018-12-18T02:11:13.942Z,102465.04
2018-12-18T02:13:43.008Z,102470.67
2018-12-18T02:16:12.037Z,102468.53
2018-12-18T02:18:40.753Z,102471.09
2018-12-18T02:21:09.483Z,102466.80
2018-12-18T02:23:38.300Z,102466.39
2018-12-18T02:26:07.202Z,102461.67
2018-12-18T02:28:36.311Z,102469.00
2018-12-18T02:31:05.423Z,102472.42
2018-12-18T02:33:34.121Z,102472.39
2018-12-18T02:36:02.867Z,102480.16
2018-12-18T02:38:31.928Z,102479.31
2018-12-18T02:41:00.859Z,102469.38
2018-12-18T02:43:29.601Z,102470.63
2018-12-18T02:45:58.551Z,102469.75
2018-12-18T02:48:27.461Z,102473.63
2018-12-18T02:50:56.531Z,102474.91
2018-12-18T02:53:25.218Z,102474.09
2018-12-18T02:55:54.455Z,102468.46
2018-12-18T02:58:23.499Z,102474.02
2018-12-18T03:00:52.580Z,102474.04
2018-12-18T03:03:21.702Z,102479.27
2018-12-18T03:05:50.608Z,102476.67
2018-12-18T03:08:19.662Z,102473.21
2018-12-18T03:10:49.004Z,102477.52
2018-12-18T03:13:17.835Z,102477.09
2018-12-18T03:15:46.642Z,102490.10
2018-12-18T03:18:15.844Z,102490.13
2018-12-18T03:20:44.875Z,102490.56
2018-12-18T03:23:13.778Z,102491.44
2018-12-18T03:25:42.755Z,102484.50
2018-12-18T03:28:11.694Z,102492.28
2018-12-18T03:30:40.421Z,102494.77
2018-12-18T03:33:09.584Z,102490.55
2018-12-18T03:35:38.637Z,102496.59
2018-12-18T03:38:07.403Z,102499.17
2018-12-18T03:40:36.202Z,102500.52
2018-12-18T03:43:05.063Z,102503.58
2018-12-18T03:45:34.105Z,102504.87
2018-12-18T03:48:03.014Z,102500.13
2018-12-18T03:50:31.728Z,102511.77
2018-12-18T03:53:00.484Z,102505.66
2018-12-18T03:55:29.205Z,102506.94
2018-12-18T03:57:58.051Z,102507.80
2018-12-18T04:00:33.555Z,102509.55
2018-12-18T04:03:02.509Z,102501.81
2018-12-18T04:05:31.524Z,102512.19
2018-12-18T04:08:00.367Z,102513.42
2018-12-18T04:10:29.580Z,102515.62
2018-12-18T04:12:58.493Z,102519.52
2018-12-18T04:15:27.522Z,102522.98
2018-12-18T04:17:56.990Z,102519.55
2018-12-18T04:20:26.101Z,102522.13
2018-12-18T04:22:55.059Z,102524.70
2018-12-18T04:25:23.866Z,102528.57
2018-12-18T04:27:53.077Z,102523.82
2018-12-18T04:30:22.167Z,102522.98
2018-12-18T04:32:51.605Z,102529.05
2018-12-18T04:35:20.323Z,102526.91
2018-12-18T04:37:48.999Z,102526.44
2018-12-18T04:40:17.869Z,102520.02
2018-12-18T04:42:46.940Z,102524.80
2018-12-18T04:45:15.845Z,102527.78
2018-12-18T04:47:45.111Z,102533.38
2018-12-18T04:50:14.212Z,102535.55
2018-12-18T04:52:43.416Z,102527.33
2018-12-18T04:55:12.426Z,102523.42
2018-12-18T04:57:41.337Z,102530.34
2018-12-18T05:00:10.810Z,102530.79
2018-12-18T05:02:40.117Z,102532.97
2018-12-18T05:05:08.977Z,102533.45
2018-12-18T05:07:37.738Z,102536.94
2018-12-18T05:10:06.950Z,102543.38
2018-12-18T05:12:36.608Z,102541.71
2018-12-18T05:15:06.334Z,102549.05
2018-12-18T05:17:35.568Z,102547.31
2018-12-18T05:20:04.577Z,102549.42
2018-12-18T05:22:33.295Z,102552.84
2018-12-18T05:25:02.064Z,102561.86
2018-12-18T05:27:30.821Z,102564.45
2018-12-18T05:29:59.635Z,102556.61
2018-12-18T05:32:28.434Z,102557.48
2018-12-18T05:34:57.261Z,102559.62
2018-12-18T05:37:26.277Z,102561.81
2018-12-18T05:39:55.130Z,102557.48
2018-12-18T05:42:23.865Z,102561.34
2018-12-18T05:44:52.752Z,102567.75
2018-12-18T05:47:21.403Z,102572.50
2018-12-18T05:49:50.194Z,102573.75
2018-12-18T05:52:19.191Z,102573.75
2018-12-18T05:54:48.080Z,102579.34
2018-12-18T05:57:17.280Z,102574.98
2018-12-18T05:59:46.971Z,102574.97
2018-12-18T06:02:15.686Z,102580.98
2018-12-18T06:04:44.646Z,102580.98
2018-12-18T06:07:13.872Z,102587.39
2018-12-18T06:09:42.622Z,102441.21
2018-12-18T06:12:11.743Z,102584.83
2018-12-18T06:14:40.400Z,102593.48
2018-12-18T06:17:09.131Z,102593.04
2018-12-18T06:19:38.390Z,102591.72
2018-12-18T06:22:07.333Z,102598.19
2018-12-18T06:24:36.626Z,102599.51
2018-12-18T06:27:05.628Z,102597.70
2018-12-18T06:29:34.703Z,102606.31
2018-12-18T06:32:03.419Z,102607.99
2018-12-18T06:34:32.145Z,102606.31
2018-12-18T06:37:00.884Z,102610.55
2018-12-18T06:39:29.886Z,102612.33
2018-12-18T06:41:58.887Z,102624.77
2018-12-18T06:44:28.019Z,102618.64
2018-12-18T06:46:57.073Z,102618.70
2018-12-18T06:49:25.892Z,102622.13
2018-12-18T06:51:54.772Z,102621.70
2018-12-18T06:54:23.506Z,102622.55
2018-12-18T06:56:52.323Z,102624.69
2018-12-18T06:59:21.223Z,102629.02
2018-12-18T07:01:50.194Z,102632.92
2018-12-18T07:04:19.303Z,102633.83
2018-12-18T07:06:48.362Z,102638.97
2018-12-18T07:09:17.595Z,102642.40
2018-12-18T07:11:46.515Z,102645.86
2018-12-18T07:14:15.578Z,102644.47
2018-12-18T07:16:44.370Z,102651.77
2018-12-18T07:19:13.257Z,102649.58
2018-12-18T07:21:42.079Z,102648.25
2018-12-18T07:24:13.992Z,102649.94
2018-12-18T07:26:41.914Z,102654.66
2018-12-18T07:29:10.711Z,102667.16
2018-12-18T07:31:39.801Z,102659.38
2018-12-18T07:34:09.314Z,102662.83
2018-12-18T07:36:38.423Z,102667.91
2018-12-18T07:39:09.007Z,102667.97
2018-12-18T07:41:37.694Z,102671.84
2018-12-18T07:44:06.459Z,102669.65
2018-12-18T07:46:35.597Z,102673.91
2018-12-18T07:49:04.676Z,102675.95
2018-12-18T07:51:33.467Z,102676.30
2018-12-18T07:54:02.496Z,102675.84
2018-12-18T07:56:31.699Z,102680.98
2018-12-18T07:59:00.503Z,102677.03
2018-12-18T08:01:29.218Z,102677.31
2018-12-18T08:03:57.925Z,102678.64
2018-12-18T08:06:26.843Z,102674.69
2018-12-18T08:08:55.730Z,102685.48
2018-12-18T08:11:24.839Z,102686.77
2018-12-18T08:13:53.731Z,102676.89
2018-12-18T08:16:22.556Z,102684.61
2018-12-18T08:18:51.528Z,102680.31
2018-12-18T08:21:20.252Z,102686.36
2018-12-18T08:23:49.401Z,102689.81
2018-12-18T08:26:18.884Z,102691.98
2018-12-18T08:28:47.897Z,102698.89
2018-12-18T08:31:16.580Z,102693.23
2018-12-18T08:33:45.583Z,102698.47
2018-12-18T08:36:14.659Z,102697.56
2018-12-18T08:38:43.726Z,102704.86
2018-12-18T08:41:12.464Z,102701.06
2018-12-18T08:43:41.475Z,102699.80
2018-12-18T08:46:10.502Z,102704.94
2018-12-18T08:48:39.573Z,102702.35
2018-12-18T08:51:08.236Z,102699.77
2018-12-18T08:53:37.334Z,102704.09
2018-12-18T08:56:06.373Z,102706.68
2018-12-18T08:58:35.229Z,102709.30
2018-12-18T09:01:04.728Z,102709.72
2018-12-18T09:03:33.835Z,102713.52
2018-12-18T09:06:02.510Z,102720.92
2018-12-18T09:08:31.773Z,102714.09
2018-12-18T09:11:00.933Z,102713.28
2018-12-18T09:13:30.162Z,102710.28
2018-12-18T09:15:59.191Z,102714.19
2018-12-18T09:18:28.130Z,102713.73
2018-12-18T09:20:56.940Z,102717.23
2018-12-18T09:23:25.777Z,102714.65
2018-12-18T09:25:54.804Z,102706.92
2018-12-18T09:28:23.494Z,102717.61
2018-12-18T09:30:52.310Z,102715.03
2018-12-18T09:33:22.015Z,102707.28
2018-12-18T09:35:51.023Z,102710.73
2018-12-18T09:38:24.967Z,102710.39
2018-12-18T09:40:59.111Z,102719.88
2018-12-18T09:43:33.198Z,102724.56
2018-12-18T09:46:02.148Z,102659.25
2018-12-18T09:48:31.369Z,102721.17
2018-12-18T09:51:00.158Z,102691.94
2018-12-18T09:53:29.174Z,102723.77
2018-12-18T09:55:58.043Z,102722.05
2018-12-18T09:58:27.509Z,102723.73
2018-12-18T10:00:56.934Z,102725.05
2018-12-18T10:03:25.974Z,102725.05
2018-12-18T10:05:56.454Z,102720.76
2018-12-18T10:08:25.981Z,102715.13
2018-12-18T10:10:55.199Z,102721.63
2018-12-18T10:13:24.485Z,102718.11
2018-12-18T10:15:53.195Z,102720.76
2018-12-18T10:18:22.422Z,102721.98
2018-12-18T10:20:51.293Z,102720.62
2018-12-18T10:23:19.901Z,102718.37
2018-12-18T10:25:49.353Z,102718.27
2018-12-18T10:28:18.056Z,102717.02
2018-12-18T10:30:46.931Z,102716.14
2018-12-18T10:33:16.448Z,102719.53
2018-12-18T10:35:45.468Z,102719.11
2018-12-18T10:38:14.313Z,102719.11
2018-12-18T10:40:43.224Z,102713.52
2018-12-18T10:43:11.976Z,102716.95
2018-12-18T10:45:41.082Z,102672.89
2018-12-18T10:48:09.843Z,102719.03
2018-12-18T10:50:39.749Z,102723.22
2018-12-18T10:53:08.514Z,102713.34
2018-12-18T10:55:37.214Z,102723.26
2018-12-18T10:58:06.092Z,102731.42
2018-12-18T11:00:40.236Z,102725.80
2018-12-18T11:03:09.093Z,102723.18
2018-12-18T11:05:38.116Z,102724.51
2018-12-18T11:08:07.103Z,102730.93
2018-12-18T11:10:35.809Z,102723.56
2018-12-18T11:13:10.231Z,102720.06
2018-12-18T11:15:38.908Z,102726.53
2018-12-18T11:18:07.675Z,102723.52
2018-12-18T11:20:36.351Z,102730.73
2018-12-18T11:23:05.257Z,102735.57
2018-12-18T11:25:34.125Z,102725.69
2018-12-18T11:28:03.183Z,102730.86
2018-12-18T11:30:32.020Z,102727.93
2018-12-18T11:33:01.152Z,102731.80
2018-12-18T11:35:29.995Z,102736.06
2018-12-18T11:37:59.705Z,102738.27
2018-12-18T11:40:28.735Z,102738.30
2018-12-18T11:42:58.034Z,102738.76
2018-12-18T11:45:26.800Z,102725.39
2018-12-18T11:47:55.624Z,102736.56
2018-12-18T11:50:24.295Z,102746.09
2018-12-18T11:52:53.145Z,102743.12
2018-12-18T11:55:22.132Z,102736.62
2018-12-18T11:57:51.048Z,102738.87
2018-12-18T12:00:20.272Z,102738.91
2018-12-18T12:02:49.524Z,102738.45
2018-12-18T12:05:18.298Z,102729.41
2018-12-18T12:07:47.209Z,102734.54
2018-12-18T12:10:15.949Z,102729.38
2018-12-18T12:12:45.966Z,102736.28
2018-12-18T12:15:15.337Z,102738.87
2018-12-18T12:17:44.359Z,102731.87
2018-12-18T12:20:13.113Z,102734.43
2018-12-18T12:22:42.178Z,102740.09
2018-12-18T12:25:11.576Z,102747.84
2018-12-18T12:27:45.500Z,102749.17
2018-12-18T12:30:14.201Z,102747.49
2018-12-18T12:32:43.188Z,102761.33
2018-12-18T12:35:12.565Z,102753.95
2018-12-18T12:37:41.448Z,102750.12
2018-12-18T12:40:10.583Z,102751.90
2018-12-18T12:42:39.601Z,102744.56
2018-12-18T12:45:08.507Z,102741.22
2018-12-18T12:47:37.497Z,102742.55
2018-12-18T12:50:07.355Z,102749.05
2018-12-18T12:52:36.948Z,102748.59
2018-12-18T12:55:06.566Z,102764.97
2018-12-18T12:57:35.252Z,102760.27
2018-12-18T13:00:04.664Z,102755.97
2018-12-18T13:02:33.488Z,102758.55
2018-12-18T13:05:02.870Z,102718.55
2018-12-18T13:07:32.048Z,102751.94
2018-12-18T13:10:00.909Z,102758.52
2018-12-18T13:12:30.868Z,102754.67
2018-12-18T13:15:00.428Z,102753.27
2018-12-18T13:17:29.398Z,102758.36
2018-12-18T13:19:58.146Z,102753.20
2018-12-18T13:22:27.424Z,102754.52
2018-12-18T13:24:56.331Z,102753.16
2018-12-18T13:27:26.285Z,102749.20
2018-12-18T13:29:55.636Z,102739.59
2018-12-18T13:32:24.370Z,102746.58
2018-12-18T13:34:53.480Z,102749.93
2018-12-18T13:37:22.471Z,102581.45
2018-12-18T13:39:51.301Z,102755.44
2018-12-18T13:42:20.011Z,102744.61
2018-12-18T13:44:49.419Z,102750.66
2018-12-18T13:47:18.621Z,102759.31
2018-12-18T13:49:47.621Z,102751.94
2018-12-18T13:52:16.434Z,102760.22
2018-12-18T13:54:45.440Z,102758.40
2018-12-18T13:57:14.526Z,102762.69
2018-12-18T13:59:44.050Z,102760.53
2018-12-18T14:02:13.473Z,102735.18
2018-12-18T14:04:42.915Z,102766.11
2018-12-18T14:07:11.927Z,102776.44
2018-12-18T14:09:41.055Z,102775.56
2018-12-18T14:12:10.131Z,102775.98
2018-12-18T14:14:39.046Z,102784.11
2018-12-18T14:17:07.905Z,102788.41
2018-12-18T14:19:36.719Z,102792.77
2018-12-18T14:22:05.905Z,102782.44
2018-12-18T14:24:34.856Z,102785.86
2018-12-18T14:27:04.145Z,102779.41
2018-12-18T14:29:32.982Z,102791.52
2018-12-18T14:32:01.881Z,102783.73
2018-12-18T14:34:31.196Z,102777.73
2018-12-18T14:37:00.392Z,102836.40
2018-12-18T14:39:29.650Z,102781.31
2018-12-18T14:41:58.896Z,102779.19
2018-12-18T14:44:28.842Z,102786.52
2018-12-18T14:46:57.624Z,102788.76
2018-12-18T14:49:27.096Z,102790.47
2018-12-18T14:51:56.098Z,102790.13
2018-12-18T14:54:24.913Z,102784.97
2018-12-18T14:56:54.419Z,102784.66
2018-12-18T14:59:24.194Z,102788.05
2018-12-18T15:01:53.485Z,102796.29
2018-12-18T15:04:22.596Z,102798.08
2018-12-18T15:06:51.594Z,102801.05
2018-12-18T15:09:20.900Z,102801.05
2018-12-18T15:11:50.370Z,102807.50
2018-12-18T15:14:19.232Z,102803.70
2018-12-18T15:16:48.251Z,102810.70
2018-12-18T15:19:17.096Z,102813.70
2018-12-18T15:21:46.008Z,102818.45
2018-12-18T15:24:15.219Z,102807.20
2018-12-18T15:26:44.313Z,102809.02
2018-12-18T15:29:13.369Z,102809.06
2018-12-18T15:31:42.662Z,102804.77
2018-12-18T15:34:12.088Z,102807.81
2018-12-18T15:36:41.273Z,102814.80
2018-12-18T15:39:10.340Z,102808.23
2018-12-18T15:41:39.115Z,102816.47
2018-12-18T15:44:08.362Z,102819.13
2018-12-18T15:46:37.552Z,102820.05
2018-12-18T15:49:06.300Z,102820.92
2018-12-18T15:51:35.196Z,102823.96
2018-12-18T15:54:04.238Z,102822.67
2018-12-18T15:56:33.596Z,102821.86
2018-12-18T15:59:02.786Z,102821.80
2018-12-18T16:01:31.521Z,102825.70
2018-12-18T16:04:00.882Z,102821.41
2018-12-18T16:06:30.026Z,102832.25
2018-12-18T16:08:59.491Z,102824.11
2018-12-18T16:11:28.240Z,102830.19
2018-12-18T16:13:57.003Z,102665.03
2018-12-18T16:16:26.066Z,102834.98
2018-12-18T16:18:55.076Z,102833.61
2018-12-18T16:21:24.169Z,102833.58
2018-12-18T16:23:53.042Z,102824.52
2018-12-18T16:26:21.862Z,102826.73
2018-12-18T16:28:50.716Z,102837.08
2018-12-18T16:31:19.595Z,102827.22
2018-12-18T16:33:49.029Z,102836.27
2018-12-18T16:36:17.806Z,102840.61
2018-12-18T16:38:46.534Z,102840.23
2018-12-18T16:41:15.548Z,102844.14
2018-12-18T16:43:44.345Z,102850.23
2018-12-18T16:46:13.192Z,102846.31
2018-12-18T16:48:41.909Z,102854.59
2018-12-18T16:51:10.986Z,102844.74
2018-12-18T16:53:39.851Z,102846.03
2018-12-18T16:56:08.497Z,102847.86
2018-12-18T16:58:37.286Z,102832.38
2018-12-18T17:01:06.469Z,102837.16
2018-12-18T17:03:35.380Z,102842.36
2018-12-18T17:06:04.375Z,102838.09
2018-12-18T17:08:33.587Z,102837.23
2018-12-18T17:11:02.316Z,102839.05
2018-12-18T17:13:31.470Z,102829.64
2018-12-18T17:16:00.598Z,102827.92
2018-12-18T17:18:29.617Z,102829.15
2018-12-18T17:20:58.429Z,102836.48
2018-12-18T17:23:27.232Z,102834.84
2018-12-18T17:25:56.272Z,102843.48
2018-12-18T17:28:25.232Z,102837.47
2018-12-18T17:30:54.006Z,102840.47
2018-12-18T17:33:22.925Z,102837.47
2018-12-18T17:35:52.078Z,102843.48
2018-12-18T17:38:21.286Z,102835.37
2018-12-18T17:40:50.357Z,102834.11
2018-12-18T17:43:19.903Z,102837.08
2018-12-18T17:45:49.064Z,102830.16
2018-12-18T17:48:17.870Z,102828.41
2018-12-18T17:50:46.739Z,102839.18
2018-12-18T17:53:15.615Z,102844.73
2018-12-18T17:55:44.486Z,102833.91
2018-12-18T17:58:13.205Z,102845.12
2018-12-18T18:00:42.276Z,102827.05
2018-12-18T18:03:10.956Z,102834.74
2018-12-18T18:05:40.285Z,102834.74
2018-12-18T18:08:09.171Z,102839.50
2018-12-18T18:10:38.080Z,102841.21
2018-12-18T18:13:06.852Z,102848.48
2018-12-18T18:15:36.053Z,102850.69
2018-12-18T18:18:05.264Z,102851.59
2018-12-18T18:20:34.148Z,102857.16
2018-12-18T18:23:03.199Z,102863.20
2018-12-18T18:25:32.040Z,102858.09
2018-12-18T18:28:01.392Z,102862.89
2018-12-18T18:30:30.211Z,102868.52
2018-12-18T18:32:58.973Z,102866.77
2018-12-18T18:35:27.918Z,102865.05
2018-12-18T18:37:57.037Z,102872.89
2018-12-18T18:40:26.282Z,102887.54
2018-12-18T18:42:55.064Z,102869.81
2018-12-18T18:45:23.848Z,102867.19
2018-12-18T18:47:52.621Z,102870.20
2018-12-18T18:50:21.628Z,102868.91
2018-12-18T18:52:50.460Z,102867.95
2018-12-18T18:55:19.461Z,102867.92
2018-12-18T18:57:48.290Z,102863.63
2018-12-18T19:00:17.012Z,102871.80
2018-12-18T19:02:48.218Z,102873.97
2018-12-18T19:05:17.256Z,102871.77
2018-12-18T19:07:46.149Z,102870.52
2018-12-18T19:10:15.386Z,102874.81
2018-12-18T19:12:44.826Z,102876.98
2018-12-18T19:15:14.354Z,102873.97
2018-12-18T19:17:43.389Z,102720.45
2018-12-18T19:20:12.329Z,102880.06
2018-12-18T19:22:41.190Z,102880.09
2018-12-18T19:25:09.996Z,102882.64
2018-12-18T19:27:39.095Z,102883.97
2018-12-18T19:30:08.258Z,102880.55
2018-12-18T19:32:37.211Z,102881.45
2018-12-18T19:35:06.439Z,102881.88
2018-12-18T19:37:35.242Z,102886.21
2018-12-18T19:40:04.303Z,102899.22
2018-12-18T19:42:33.844Z,102897.02
2018-12-18T19:45:02.825Z,102889.64
2018-12-18T19:47:31.695Z,102890.97
2018-12-18T19:50:00.593Z,102887.16
2018-12-18T19:52:29.363Z,102884.53
2018-12-18T19:54:58.107Z,102889.70
2018-12-18T19:57:27.146Z,102884.50
2018-12-18T19:59:55.957Z,102884.05
2018-12-18T20:02:24.878Z,102889.67
2018-12-18T20:04:54.173Z,102882.30
2018-12-18T20:07:22.962Z,102884.05
2018-12-18T20:09:52.122Z,102875.41
2018-12-18T20:12:21.300Z,102877.13
2018-12-18T20:14:50.622Z,102876.77
2018-12-18T20:17:19.649Z,102878.91
2018-12-18T20:19:48.669Z,102876.73
2018-12-18T20:22:18.019Z,102872.92
2018-12-18T20:24:47.389Z,102872.89
2018-12-18T20:27:16.245Z,102874.60
2018-12-18T20:29:45.640Z,102882.86
2018-12-18T20:32:14.563Z,102884.53
2018-12-18T20:34:43.585Z,102888.91
2018-12-18T20:37:18.078Z,102898.41
2018-12-18T20:39:43.554Z,102897.61
2018-12-18T20:42:12.472Z,102898.10
2018-12-18T20:44:41.453Z,102899.47
2018-12-18T20:47:10.536Z,102899.05
2018-12-18T20:49:40.839Z,102898.66
2018-12-18T20:52:10.090Z,102902.16
2018-12-18T20:54:38.993Z,102897.85
2018-12-18T20:57:08.560Z,102906.56
2018-12-18T20:59:37.770Z,102904.42
2018-12-18T21:02:07.127Z,102907.47
2018-12-18T21:04:35.928Z,102906.66
2018-12-18T21:07:04.827Z,102909.70
2018-12-18T21:09:34.258Z,102912.29
2018-12-18T21:12:03.434Z,102903.71
2018-12-18T21:14:32.284Z,102908.54
2018-12-18T21:17:01.439Z,102902.48
2018-12-18T21:19:30.325Z,102905.07
2018-12-18T21:21:59.971Z,102904.63
2018-12-18T21:24:29.363Z,102896.33
2018-12-18T21:26:58.185Z,102898.02
2018-12-18T21:29:27.061Z,102892.91
2018-12-18T21:31:56.095Z,102899.41
2018-12-18T21:34:25.064Z,102899.80
2018-12-18T21:36:54.116Z,102899.34
2018-12-18T21:39:23.265Z,102904.91
2018-12-18T21:41:52.249Z,102903.55
2018-12-18T21:44:21.310Z,102901.52
2018-12-18T21:46:50.618Z,102908.47
2018-12-18T21:49:19.652Z,102902.42
2018-12-18T21:51:48.753Z,102905.43
2018-12-18T21:54:17.968Z,102908.37
2018-12-18T21:56:47.095Z,102900.50
2018-12-18T21:59:16.666Z,102910.02
2018-12-18T22:01:45.500Z,102903.97
2018-12-18T22:04:15.009Z,102907.85
2018-12-18T22:06:43.735Z,102910.51
2018-12-18T22:09:13.038Z,102911.84
2018-12-18T22:11:41.898Z,102910.61
2018-12-18T22:14:10.803Z,102912.36
2018-12-18T22:16:40.221Z,102911.06
2018-12-18T22:19:09.211Z,102906.33
2018-12-18T22:21:38.200Z,102901.64
2018-12-18T22:24:07.142Z,102908.53
2018-12-18T22:26:36.008Z,102905.04
2018-12-18T22:29:05.031Z,102898.59
2018-12-18T22:31:33.893Z,102902.91
2018-12-18T22:34:03.180Z,102899.02
2018-12-18T22:36:32.354Z,102900.70
2018-12-18T22:39:01.439Z,102900.28
2018-12-18T22:41:30.333Z,102898.18
2018-12-18T22:43:59.463Z,102892.55
2018-12-18T22:46:28.441Z,102894.27
2018-12-18T22:48:58.373Z,102893.94
2018-12-18T22:51:27.243Z,102894.75
2018-12-18T22:53:56.169Z,102894.81
2018-12-18T22:56:25.373Z,102895.69
2018-12-18T22:58:54.378Z,102894.84
2018-12-18T23:01:28.769Z,102897.01
2018-12-18T23:03:57.561Z,102900.89
2018-12-18T23:06:26.495Z,102897.43
2018-12-18T23:08:55.512Z,102897.43
2018-12-18T23:11:25.498Z,102893.09
2018-12-18T23:13:54.500Z,102899.57
2018-12-18T23:16:24.029Z,102888.30
2018-12-18T23:18:53.262Z,102893.52
2018-12-18T23:21:21.951Z,102898.59
2018-12-18T23:23:51.153Z,102906.40
2018-12-18T23:26:20.127Z,102896.08
2018-12-18T23:28:48.833Z,102902.48
2018-12-18T23:31:17.959Z,102899.38
2018-12-18T23:33:46.888Z,102900.64
2018-12-18T23:36:15.676Z,102900.16
2018-12-18T23:38:44.696Z,102894.03
2018-12-18T23:41:13.570Z,102890.16
2018-12-18T23:43:42.346Z,102885.33
2018-12-18T23:46:11.096Z,102881.38
2018-12-18T23:48:40.247Z,102887.36
2018-12-18T23:51:09.556Z,102886.98
2018-12-18T23:53:38.828Z,102886.48
2018-12-18T23:56:07.934Z,102878.97
2018-12-18T23:58:36.939Z,102874.56
